createdAt,value
2017-10-13T00:00:02.635Z,93.02
2017-10-13T00:01:02.632Z,93.31
2017-10-13T00:02:02.628Z,93.21
2017-10-13T00:03:02.628Z,93.12
2017-10-13T00:04:02.624Z,93.41
2017-10-13T00:05:02.622Z,93.21
2017-10-13T00:06:02.619Z,92.93
2017-10-13T00:07:02.617Z,93.50
2017-10-13T00:08:02.619Z,93.31
2017-10-13T00:09:02.610Z,93.02
2017-10-13T00:10:02.615Z,93.41
2017-10-13T00:11:02.603Z,93.31
2017-10-13T00:12:02.604Z,93.12
2017-10-13T00:13:02.599Z,92.83
2017-10-13T00:14:02.597Z,93.21
2017-10-13T00:15:02.594Z,93.12
2017-10-13T00:16:02.589Z,93.12
2017-10-13T00:17:02.587Z,93.50
2017-10-13T00:18:02.585Z,93.12
2017-10-13T00:19:02.584Z,92.93
2017-10-13T00:20:02.578Z,93.12
2017-10-13T00:21:02.573Z,93.12
2017-10-13T00:22:02.573Z,92.83
2017-10-13T00:23:02.571Z,92.93
2017-10-13T00:24:02.568Z,93.12
2017-10-13T00:25:02.568Z,92.83
2017-10-13T00:26:02.562Z,93.12
2017-10-13T00:27:02.566Z,93.02
2017-10-13T00:28:02.556Z,92.83
2017-10-13T00:29:02.552Z,93.02
2017-10-13T00:30:02.550Z,93.21
2017-10-13T00:31:02.546Z,93.12
2017-10-13T00:32:02.545Z,93.12
2017-10-13T00:33:02.541Z,93.12
2017-10-13T00:34:02.537Z,92.83
2017-10-13T00:35:02.544Z,93.31
2017-10-13T00:36:02.529Z,93.31
2017-10-13T00:37:02.535Z,92.93
2017-10-13T00:38:02.527Z,93.12
2017-10-13T00:39:02.523Z,93.12
2017-10-13T00:40:02.523Z,93.31
2017-10-13T00:41:02.514Z,93.21
2017-10-13T00:42:02.511Z,93.02
2017-10-13T00:43:02.511Z,93.21
2017-10-13T00:44:02.507Z,93.21
2017-10-13T00:45:02.505Z,93.02
2017-10-13T00:46:02.502Z,93.31
2017-10-13T00:47:02.500Z,93.21
2017-10-13T00:48:02.497Z,93.31
2017-10-13T00:49:02.493Z,93.12
2017-10-13T00:50:02.491Z,93.12
2017-10-13T00:51:02.485Z,93.60
2017-10-13T00:52:02.482Z,93.02
2017-10-13T00:53:02.483Z,93.50
2017-10-13T00:54:02.477Z,93.50
2017-10-13T00:55:02.476Z,93.70
2017-10-13T00:56:02.471Z,93.21
2017-10-13T00:57:02.469Z,93.98
2017-10-13T00:58:02.467Z,93.98
2017-10-13T00:59:02.485Z,93.88
2017-10-13T01:00:02.470Z,93.79
2017-10-13T01:01:02.456Z,94.17
2017-10-13T01:02:02.453Z,94.27
2017-10-13T01:03:02.455Z,93.79
2017-10-13T01:04:02.450Z,94.36
2017-10-13T01:05:02.447Z,94.74
2017-10-13T01:06:02.444Z,94.46
2017-10-13T01:07:02.442Z,94.07
2017-10-13T01:08:02.442Z,94.17
2017-10-13T01:09:02.434Z,94.07
2017-10-13T01:10:02.433Z,94.17
2017-10-13T01:11:02.430Z,93.98
2017-10-13T01:12:02.422Z,94.17
2017-10-13T01:13:02.420Z,94.46
2017-10-13T01:14:02.416Z,93.70
2017-10-13T01:15:02.419Z,94.07
2017-10-13T01:16:02.411Z,94.07
2017-10-13T01:17:02.408Z,94.65
2017-10-13T01:18:05.794Z,93.88
2017-10-13T01:19:02.403Z,94.27
2017-10-13T01:20:02.404Z,94.07
2017-10-13T01:21:02.401Z,94.84
2017-10-13T01:22:02.405Z,94.65
2017-10-13T01:23:02.394Z,94.27
2017-10-13T01:24:02.386Z,95.03
2017-10-13T01:25:02.394Z,94.17
2017-10-13T01:26:02.383Z,94.07
2017-10-13T01:27:02.391Z,94.17
2017-10-13T01:28:02.382Z,94.27
2017-10-13T01:29:02.373Z,93.98
2017-10-13T01:30:02.376Z,94.17
2017-10-13T01:31:02.370Z,94.07
2017-10-13T01:32:02.367Z,94.46
2017-10-13T01:33:02.365Z,94.07
2017-10-13T01:34:02.361Z,94.36
2017-10-13T01:35:02.366Z,94.55
2017-10-13T01:36:02.354Z,94.46
2017-10-13T01:37:02.352Z,94.07
2017-10-13T01:38:02.347Z,94.84
2017-10-13T01:39:02.345Z,94.65
2017-10-13T01:40:02.344Z,94.55
2017-10-13T01:41:02.341Z,94.74
2017-10-13T01:42:02.339Z,94.74
2017-10-13T01:43:02.335Z,94.93
2017-10-13T01:44:02.330Z,94.27
2017-10-13T01:45:02.330Z,94.93
2017-10-13T01:46:02.325Z,94.74
2017-10-13T01:47:02.324Z,94.55
2017-10-13T01:48:02.320Z,94.55
2017-10-13T01:49:02.315Z,94.55
2017-10-13T01:50:02.315Z,94.84
2017-10-13T01:51:02.315Z,94.93
2017-10-13T01:52:02.309Z,94.74
2017-10-13T01:53:02.307Z,95.03
2017-10-13T01:54:02.305Z,94.74
2017-10-13T01:55:02.301Z,94.93
2017-10-13T01:56:02.298Z,95.03
2017-10-13T01:57:02.294Z,94.55
2017-10-13T01:58:02.290Z,94.65
2017-10-13T01:59:02.289Z,94.17
2017-10-13T02:00:02.284Z,94.17
2017-10-13T02:01:02.283Z,94.36
2017-10-13T02:02:02.289Z,95.03
2017-10-13T02:03:02.275Z,94.46
2017-10-13T02:04:02.267Z,95.03
2017-10-13T02:05:02.270Z,95.03
2017-10-13T02:06:02.265Z,95.32
2017-10-13T02:07:02.262Z,95.03
2017-10-13T02:08:02.260Z,94.93
2017-10-13T02:09:02.253Z,95.03
2017-10-13T02:10:02.253Z,95.22
2017-10-13T02:11:02.247Z,95.22
2017-10-13T02:12:02.246Z,94.74
2017-10-13T02:13:02.245Z,94.46
2017-10-13T02:14:02.242Z,95.12
2017-10-13T02:15:02.240Z,95.32
2017-10-13T02:16:02.234Z,95.12
2017-10-13T02:17:02.228Z,94.93
2017-10-13T02:18:02.226Z,95.12
2017-10-13T02:19:02.224Z,95.03
2017-10-13T02:20:02.219Z,94.89
2017-10-13T02:21:02.215Z,95.27
2017-10-13T02:22:02.212Z,95.27
2017-10-13T02:23:02.209Z,94.93
2017-10-13T02:24:02.202Z,95.36
2017-10-13T02:25:02.206Z,95.56
2017-10-13T02:26:02.206Z,95.75
2017-10-13T02:27:02.199Z,95.27
2017-10-13T02:28:02.198Z,95.75
2017-10-13T02:29:02.194Z,95.84
2017-10-13T02:30:02.185Z,95.65
2017-10-13T02:31:02.184Z,96.13
2017-10-13T02:32:02.179Z,95.65
2017-10-13T02:33:02.176Z,95.65
2017-10-13T02:34:02.172Z,95.75
2017-10-13T02:35:02.171Z,96.32
2017-10-13T02:36:02.165Z,96.13
2017-10-13T02:37:02.164Z,96.13
2017-10-13T02:38:02.157Z,96.22
2017-10-13T02:39:02.152Z,96.42
2017-10-13T02:40:02.150Z,96.42
2017-10-13T02:41:02.147Z,96.94
2017-10-13T02:42:02.145Z,96.94
2017-10-13T02:43:02.159Z,96.94
2017-10-13T02:44:02.135Z,96.84
2017-10-13T02:45:02.138Z,96.94
2017-10-13T02:46:02.133Z,97.13
2017-10-13T02:47:02.127Z,97.03
2017-10-13T02:48:02.123Z,97.22
2017-10-13T02:49:02.118Z,97.03
2017-10-13T02:50:02.117Z,97.13
2017-10-13T02:51:02.113Z,97.99
2017-10-13T02:52:02.115Z,97.03
2017-10-13T02:53:02.106Z,97.61
2017-10-13T02:54:02.100Z,98.27
2017-10-13T02:55:02.098Z,98.18
2017-10-13T02:56:02.097Z,97.71
2017-10-13T02:57:02.090Z,98.08
2017-10-13T02:58:02.091Z,98.37
2017-10-13T02:59:02.083Z,98.08
2017-10-13T03:00:02.079Z,98.27
2017-10-13T03:01:02.077Z,98.56
2017-10-13T03:02:02.072Z,98.66
2017-10-13T03:03:02.075Z,98.85
2017-10-13T03:04:02.066Z,98.85
2017-10-13T03:05:02.066Z,98.47
2017-10-13T03:06:02.069Z,98.47
2017-10-13T03:07:02.058Z,98.85
2017-10-13T03:08:02.052Z,98.66
2017-10-13T03:09:02.054Z,98.37
2017-10-13T03:10:02.045Z,98.66
2017-10-13T03:11:02.041Z,98.94
2017-10-13T03:12:02.036Z,98.75
2017-10-13T03:13:02.036Z,98.37
2017-10-13T03:14:02.030Z,98.94
2017-10-13T03:15:02.027Z,98.85
2017-10-13T03:16:02.023Z,99.04
2017-10-13T03:17:02.019Z,99.13
2017-10-13T03:18:02.017Z,99.32
2017-10-13T03:19:02.009Z,99.23
2017-10-13T03:20:02.039Z,99.23
2017-10-13T03:21:02.027Z,99.13
2017-10-13T03:22:02.001Z,98.94
2017-10-13T03:23:01.998Z,98.85
2017-10-13T03:24:01.995Z,98.94
2017-10-13T03:25:01.990Z,98.85
2017-10-13T03:26:01.993Z,99.23
2017-10-13T03:27:01.987Z,99.23
2017-10-13T03:28:01.985Z,99.32
2017-10-13T03:29:01.978Z,99.42
2017-10-13T03:30:01.989Z,99.32
2017-10-13T03:31:01.974Z,99.04
2017-10-13T03:32:01.967Z,99.04
2017-10-13T03:33:01.963Z,99.23
2017-10-13T03:34:01.964Z,99.23
2017-10-13T03:35:01.958Z,99.32
2017-10-13T03:36:01.949Z,99.52
2017-10-13T03:37:01.949Z,99.71
2017-10-13T03:38:01.946Z,99.71
2017-10-13T03:39:01.940Z,99.66
2017-10-13T03:40:01.945Z,99.99
2017-10-13T03:41:01.935Z,99.56
2017-10-13T03:42:01.938Z,99.71
2017-10-13T03:43:01.926Z,99.42
2017-10-13T03:44:01.923Z,99.90
2017-10-13T03:45:01.920Z,99.99
2017-10-13T03:46:01.917Z,99.99
2017-10-13T03:47:01.920Z,99.90
2017-10-13T03:48:01.909Z,99.85
2017-10-13T03:49:01.905Z,99.75
2017-10-13T03:50:01.903Z,99.75
2017-10-13T03:51:01.898Z,99.66
2017-10-13T03:52:01.895Z,99.95
2017-10-13T03:53:01.897Z,99.99
2017-10-13T03:54:01.890Z,99.99
2017-10-13T03:55:01.885Z,99.75
2017-10-13T03:56:01.884Z,99.99
2017-10-13T03:57:01.877Z,99.99
2017-10-13T03:58:01.875Z,99.99
2017-10-13T03:59:01.877Z,99.95
2017-10-13T04:00:01.867Z,99.99
2017-10-13T04:01:01.860Z,99.99
2017-10-13T04:02:01.861Z,99.99
2017-10-13T04:03:01.856Z,99.99
2017-10-13T04:04:01.853Z,99.99
2017-10-13T04:05:01.846Z,99.99
2017-10-13T04:06:01.849Z,99.99
2017-10-13T04:07:01.843Z,99.99
2017-10-13T04:08:01.839Z,99.99
2017-10-13T04:09:01.831Z,99.99
2017-10-13T04:10:01.836Z,99.99
2017-10-13T04:11:01.825Z,99.99
2017-10-13T04:12:01.829Z,99.99
2017-10-13T04:13:01.816Z,99.99
2017-10-13T04:14:01.815Z,99.99
2017-10-13T04:15:01.812Z,99.99
2017-10-13T04:16:01.808Z,99.99
2017-10-13T04:17:01.812Z,99.99
2017-10-13T04:18:01.801Z,99.99
2017-10-13T04:19:01.794Z,99.99
2017-10-13T04:20:01.792Z,99.99
2017-10-13T04:21:01.798Z,99.99
2017-10-13T04:22:01.788Z,99.75
2017-10-13T04:23:01.784Z,99.99
2017-10-13T04:24:01.782Z,99.99
2017-10-13T04:25:01.781Z,99.95
2017-10-13T04:26:01.773Z,99.99
2017-10-13T04:27:01.763Z,99.99
2017-10-13T04:28:01.766Z,99.99
2017-10-13T04:29:01.754Z,99.99
2017-10-13T04:30:01.752Z,99.99
2017-10-13T04:31:01.746Z,99.99
2017-10-13T04:32:01.741Z,99.99
2017-10-13T04:33:01.739Z,99.99
2017-10-13T04:34:01.735Z,99.99
2017-10-13T04:35:01.733Z,99.99
2017-10-13T04:36:01.726Z,99.99
2017-10-13T04:37:01.723Z,99.99
2017-10-13T04:38:01.717Z,99.99
2017-10-13T04:39:01.713Z,99.99
2017-10-13T04:40:01.709Z,99.99
2017-10-13T04:41:01.698Z,99.99
2017-10-13T04:42:01.700Z,99.99
2017-10-13T04:43:01.698Z,99.99
2017-10-13T04:44:01.690Z,99.99
2017-10-13T04:45:01.685Z,99.99
2017-10-13T04:46:01.689Z,99.99
2017-10-13T04:47:01.682Z,99.99
2017-10-13T04:48:01.678Z,99.99
2017-10-13T04:49:01.674Z,99.99
2017-10-13T04:50:01.671Z,99.99
2017-10-13T04:51:01.666Z,99.99
2017-10-13T04:52:01.661Z,99.99
2017-10-13T04:53:01.656Z,99.99
2017-10-13T04:54:01.660Z,99.99
2017-10-13T04:55:01.649Z,99.99
2017-10-13T04:56:01.645Z,99.99
2017-10-13T04:57:01.641Z,99.99
2017-10-13T04:58:01.635Z,99.99
2017-10-13T04:59:01.632Z,99.99
2017-10-13T05:00:01.642Z,99.99
2017-10-13T05:01:01.628Z,99.99
2017-10-13T05:02:01.620Z,99.99
2017-10-13T05:03:01.615Z,99.99
2017-10-13T05:04:01.609Z,99.99
2017-10-13T05:05:01.607Z,99.99
2017-10-13T05:06:01.604Z,99.99
2017-10-13T05:07:01.598Z,99.99
2017-10-13T05:08:01.596Z,99.99
2017-10-13T05:09:01.592Z,99.99
2017-10-13T05:10:01.587Z,99.99
2017-10-13T05:11:01.582Z,99.99
2017-10-13T05:12:01.581Z,99.99
2017-10-13T05:13:01.576Z,99.99
2017-10-13T05:14:01.569Z,99.99
2017-10-13T05:15:01.568Z,99.99
2017-10-13T05:16:01.560Z,99.99
2017-10-13T05:17:01.556Z,99.99
2017-10-13T05:18:01.554Z,99.99
2017-10-13T05:19:01.551Z,99.99
2017-10-13T05:20:01.568Z,99.99
2017-10-13T05:21:01.541Z,99.99
2017-10-13T05:22:01.534Z,99.99
2017-10-13T05:23:01.531Z,99.99
2017-10-13T05:24:01.528Z,99.99
2017-10-13T05:25:01.524Z,99.99
2017-10-13T05:26:01.518Z,99.99
2017-10-13T05:27:01.520Z,99.99
2017-10-13T05:28:01.510Z,99.99
2017-10-13T05:29:01.505Z,99.99
2017-10-13T05:30:01.500Z,99.99
2017-10-13T05:31:01.498Z,99.99
2017-10-13T05:32:01.492Z,99.99
2017-10-13T05:33:01.491Z,99.99
2017-10-13T05:34:01.486Z,99.99
2017-10-13T05:35:01.482Z,99.99
2017-10-13T05:36:01.475Z,99.99
2017-10-13T05:37:01.470Z,99.99
2017-10-13T05:38:01.471Z,99.99
2017-10-13T05:39:01.466Z,99.99
2017-10-13T05:40:01.460Z,99.99
2017-10-13T05:41:01.466Z,99.99
2017-10-13T05:42:01.451Z,99.99
2017-10-13T05:43:01.448Z,99.99
2017-10-13T05:44:01.441Z,99.99
2017-10-13T05:45:01.438Z,99.99
2017-10-13T05:46:01.436Z,99.99
2017-10-13T05:47:01.427Z,99.99
2017-10-13T05:48:01.424Z,99.99
2017-10-13T05:49:01.420Z,99.99
2017-10-13T05:50:01.417Z,99.99
2017-10-13T05:51:01.414Z,99.99
2017-10-13T05:52:01.405Z,99.99
2017-10-13T05:53:01.403Z,99.99
2017-10-13T05:54:01.405Z,99.99
2017-10-13T05:55:01.394Z,99.99
2017-10-13T05:56:01.392Z,99.99
2017-10-13T05:57:01.386Z,99.99
2017-10-13T05:58:01.386Z,99.99
2017-10-13T05:59:01.378Z,99.99
2017-10-13T06:00:01.371Z,99.99
2017-10-13T06:01:01.368Z,99.99
2017-10-13T06:02:01.358Z,99.99
2017-10-13T06:03:01.360Z,99.99
2017-10-13T06:04:01.356Z,99.99
2017-10-13T06:05:01.350Z,99.99
2017-10-13T06:06:01.345Z,99.99
2017-10-13T06:07:01.341Z,99.99
2017-10-13T06:08:01.336Z,99.99
2017-10-13T06:09:01.332Z,99.99
2017-10-13T06:10:01.350Z,99.99
2017-10-13T06:11:01.324Z,99.99
2017-10-13T06:12:01.317Z,99.99
2017-10-13T06:13:01.313Z,99.99
2017-10-13T06:14:01.324Z,99.99
2017-10-13T06:15:01.307Z,99.99
2017-10-13T06:16:01.301Z,99.99
2017-10-13T06:17:01.299Z,99.99
2017-10-13T06:18:01.299Z,99.99
2017-10-13T06:19:01.287Z,99.99
2017-10-13T06:20:01.287Z,99.99
2017-10-13T06:21:01.287Z,99.99
2017-10-13T06:22:01.275Z,99.99
2017-10-13T06:23:01.270Z,99.99
2017-10-13T06:24:01.263Z,99.99
2017-10-13T06:25:02.072Z,99.99
2017-10-13T06:26:01.261Z,99.99
2017-10-13T06:27:01.253Z,99.99
2017-10-13T06:28:01.246Z,99.99
2017-10-13T06:29:01.244Z,99.99
2017-10-13T06:30:01.241Z,99.99
2017-10-13T06:31:01.234Z,99.99
2017-10-13T06:32:01.227Z,99.99
2017-10-13T06:33:01.226Z,99.99
2017-10-13T06:34:01.219Z,99.99
2017-10-13T06:35:01.217Z,99.99
2017-10-13T06:36:01.213Z,99.99
2017-10-13T06:37:01.206Z,99.99
2017-10-13T06:38:01.224Z,99.99
2017-10-13T06:39:01.201Z,99.99
2017-10-13T06:40:01.195Z,99.99
2017-10-13T06:41:01.191Z,99.99
2017-10-13T06:42:01.187Z,99.99
2017-10-13T06:43:01.184Z,99.99
2017-10-13T06:44:01.179Z,99.99
2017-10-13T06:45:01.171Z,99.99
2017-10-13T06:46:01.166Z,99.99
2017-10-13T06:47:01.162Z,99.99
2017-10-13T06:48:01.165Z,99.99
2017-10-13T06:49:01.156Z,99.99
2017-10-13T06:50:01.151Z,99.99
2017-10-13T06:51:01.146Z,99.99
2017-10-13T06:52:01.143Z,99.99
2017-10-13T06:53:01.140Z,99.99
2017-10-13T06:54:01.134Z,99.99
2017-10-13T06:55:01.131Z,99.99
2017-10-13T06:56:01.127Z,99.99
2017-10-13T06:57:01.120Z,99.99
2017-10-13T06:58:01.118Z,99.99
2017-10-13T06:59:01.114Z,99.99
2017-10-13T07:00:01.114Z,99.99
2017-10-13T07:01:01.101Z,99.99
2017-10-13T07:02:01.097Z,99.99
2017-10-13T07:03:01.096Z,99.99
2017-10-13T07:04:01.091Z,99.99
2017-10-13T07:05:01.086Z,99.99
2017-10-13T07:06:01.081Z,99.99
2017-10-13T07:07:01.078Z,99.99
2017-10-13T07:08:01.075Z,99.99
2017-10-13T07:09:01.072Z,99.99
2017-10-13T07:10:01.067Z,99.99
2017-10-13T07:11:01.061Z,99.99
2017-10-13T07:12:01.058Z,99.99
2017-10-13T07:13:01.055Z,99.99
2017-10-13T07:14:01.051Z,99.99
2017-10-13T07:15:01.049Z,99.99
2017-10-13T07:16:01.041Z,99.99
2017-10-13T07:17:01.036Z,99.99
2017-10-13T07:18:01.035Z,99.99
2017-10-13T07:19:01.033Z,99.99
2017-10-13T07:20:01.025Z,99.99
2017-10-13T07:21:01.022Z,99.99
2017-10-13T07:22:01.018Z,99.99
2017-10-13T07:23:01.016Z,99.99
2017-10-13T07:24:01.012Z,99.99
2017-10-13T07:25:01.009Z,99.99
2017-10-13T07:26:01.002Z,99.99
2017-10-13T07:27:01.000Z,99.99
2017-10-13T07:28:00.999Z,99.99
2017-10-13T07:29:01.005Z,99.99
2017-10-13T07:30:00.988Z,99.99
2017-10-13T07:31:00.985Z,99.99
2017-10-13T07:32:00.991Z,99.99
2017-10-13T07:33:00.979Z,99.99
2017-10-13T07:34:00.983Z,99.85
2017-10-13T07:35:00.971Z,99.85
2017-10-13T07:36:00.965Z,99.99
2017-10-13T07:37:00.963Z,99.99
2017-10-13T07:38:00.962Z,99.95
2017-10-13T07:39:00.957Z,99.99
2017-10-13T07:40:00.953Z,99.99
2017-10-13T07:41:00.948Z,99.99
2017-10-13T07:42:00.946Z,99.95
2017-10-13T07:43:00.941Z,99.76
2017-10-13T07:44:00.938Z,99.85
2017-10-13T07:45:00.937Z,99.66
2017-10-13T07:46:00.936Z,99.85
2017-10-13T07:47:00.925Z,99.95
2017-10-13T07:48:00.925Z,99.85
2017-10-13T07:49:00.921Z,99.85
2017-10-13T07:50:00.917Z,99.99
2017-10-13T07:51:00.911Z,99.71
2017-10-13T07:52:00.899Z,99.71
2017-10-13T07:53:00.905Z,99.33
2017-10-13T07:54:00.904Z,99.80
2017-10-13T07:55:00.900Z,99.33
2017-10-13T07:56:00.894Z,99.62
2017-10-13T07:57:00.898Z,99.14
2017-10-13T07:58:00.890Z,99.43
2017-10-13T07:59:00.886Z,98.94
2017-10-13T08:00:00.883Z,98.85
2017-10-13T08:01:00.876Z,98.52
2017-10-13T08:02:00.874Z,97.75
2017-10-13T08:03:00.871Z,98.13
2017-10-13T08:04:00.867Z,97.08
2017-10-13T08:05:00.868Z,96.99
2017-10-13T08:06:00.860Z,97.18
2017-10-13T08:07:00.861Z,97.18
2017-10-13T08:08:00.855Z,97.47
2017-10-13T08:09:00.853Z,97.18
2017-10-13T08:10:00.851Z,96.84
2017-10-13T08:11:00.860Z,96.84
2017-10-13T08:12:00.851Z,95.79
2017-10-13T08:13:00.840Z,95.98
2017-10-13T08:14:00.839Z,95.61
2017-10-13T08:15:00.841Z,95.51
2017-10-13T08:16:00.831Z,94.93
2017-10-13T08:17:00.828Z,95.22
2017-10-13T08:18:00.824Z,95.22
2017-10-13T08:19:00.832Z,94.93
2017-10-13T08:20:00.822Z,95.41
2017-10-13T08:21:00.819Z,94.41
2017-10-13T08:22:00.817Z,94.60
2017-10-13T08:23:00.816Z,94.50
2017-10-13T08:24:00.816Z,95.07
2017-10-13T08:25:00.811Z,94.12
2017-10-13T08:26:00.807Z,93.84
2017-10-13T08:27:00.808Z,92.59
2017-10-13T08:28:00.804Z,92.40
2017-10-13T08:29:00.799Z,93.26
2017-10-13T08:30:00.800Z,93.26
2017-10-13T08:31:00.796Z,92.40
2017-10-13T08:32:00.795Z,93.16
2017-10-13T08:33:00.791Z,92.78
2017-10-13T08:34:00.792Z,92.11
2017-10-13T08:35:00.787Z,92.88
2017-10-13T08:36:00.781Z,93.26
2017-10-13T08:37:00.783Z,93.45
2017-10-13T08:38:00.781Z,93.55
2017-10-13T08:39:00.779Z,93.74
2017-10-13T08:40:00.780Z,92.97
2017-10-13T08:41:00.771Z,93.26
2017-10-13T08:42:00.770Z,93.45
2017-10-13T08:43:00.767Z,92.97
2017-10-13T08:44:00.766Z,93.45
2017-10-13T08:45:00.763Z,93.69
2017-10-13T08:46:00.761Z,92.83
2017-10-13T08:47:00.760Z,92.35
2017-10-13T08:48:00.755Z,92.35
2017-10-13T08:49:00.748Z,92.73
2017-10-13T08:50:00.754Z,93.12
2017-10-13T08:51:00.748Z,92.06
2017-10-13T08:52:00.747Z,91.87
2017-10-13T08:53:00.831Z,91.77
2017-10-13T08:54:00.746Z,92.16
2017-10-13T08:55:00.743Z,91.49
2017-10-13T08:56:00.738Z,92.06
2017-10-13T08:57:00.739Z,91.97
2017-10-13T08:58:00.739Z,92.06
2017-10-13T08:59:00.734Z,92.06
2017-10-13T09:00:00.732Z,91.87
2017-10-13T09:01:00.729Z,91.87
2017-10-13T09:02:00.729Z,91.30
2017-10-13T09:03:00.732Z,92.06
2017-10-13T09:04:00.731Z,90.82
2017-10-13T09:05:01.687Z,90.91
2017-10-13T09:06:00.728Z,91.68
2017-10-13T09:07:02.686Z,91.39
2017-10-13T09:08:00.715Z,92.06
2017-10-13T09:09:00.714Z,91.20
2017-10-13T09:10:00.720Z,90.63
2017-10-13T09:11:00.713Z,91.01
2017-10-13T09:12:00.713Z,91.87
2017-10-13T09:13:00.712Z,90.63
2017-10-13T09:14:00.712Z,90.77
2017-10-13T09:15:00.693Z,90.24
2017-10-13T09:16:00.701Z,90.63
2017-10-13T09:17:00.690Z,91.15
2017-10-13T09:18:00.702Z,90.96
2017-10-13T09:19:00.688Z,90.86
2017-10-13T09:20:01.619Z,90.48
2017-10-13T09:21:01.620Z,90.77
2017-10-13T09:22:01.624Z,90.86
2017-10-13T09:23:00.683Z,90.39
2017-10-13T09:24:00.681Z,91.15
2017-10-13T09:25:00.686Z,90.58
2017-10-13T09:26:00.678Z,89.90
2017-10-13T09:27:01.621Z,89.52
2017-10-13T09:28:00.679Z,89.43
2017-10-13T09:29:00.679Z,89.90
2017-10-13T09:30:01.622Z,90.67
2017-10-13T09:31:00.681Z,90.39
2017-10-13T09:32:00.670Z,91.19
2017-10-13T09:33:00.671Z,89.95
2017-10-13T09:34:00.686Z,89.18
2017-10-13T09:35:00.678Z,89.47
2017-10-13T09:36:00.683Z,89.57
2017-10-13T09:37:01.624Z,88.90
2017-10-13T09:38:00.690Z,89.37
2017-10-13T09:39:00.687Z,88.51
2017-10-13T09:40:00.678Z,88.99
2017-10-13T09:41:00.659Z,88.90
2017-10-13T09:42:00.661Z,88.13
2017-10-13T09:43:00.677Z,89.37
2017-10-13T09:44:00.686Z,89.57
2017-10-13T09:45:00.661Z,89.37
2017-10-13T09:46:00.663Z,88.90
2017-10-13T09:47:00.652Z,88.32
2017-10-13T09:48:00.662Z,89.18
2017-10-13T09:49:00.677Z,88.70
2017-10-13T09:50:00.650Z,87.94
2017-10-13T09:51:00.658Z,88.51
2017-10-13T09:52:00.649Z,88.23
2017-10-13T09:53:00.644Z,87.27
2017-10-13T09:54:00.652Z,88.23
2017-10-13T09:55:00.644Z,88.84
2017-10-13T09:56:00.643Z,87.98
2017-10-13T09:57:00.639Z,87.70
2017-10-13T09:58:00.638Z,87.12
2017-10-13T09:59:00.640Z,86.93
2017-10-13T10:00:00.640Z,86.25
2017-10-13T10:01:00.636Z,86.07
2017-10-13T10:02:00.636Z,86.58
2017-10-13T10:03:00.636Z,85.88
2017-10-13T10:04:00.632Z,86.25
2017-10-13T10:05:00.633Z,86.11
2017-10-13T10:06:00.632Z,85.49
2017-10-13T10:07:00.631Z,86.68
2017-10-13T10:08:00.632Z,86.40
2017-10-13T10:09:00.629Z,85.92
2017-10-13T10:10:00.628Z,86.30
2017-10-13T10:11:00.628Z,86.01
2017-10-13T10:12:00.626Z,85.53
2017-10-13T10:13:00.625Z,85.97
2017-10-13T10:14:00.626Z,86.07
2017-10-13T10:15:00.625Z,85.88
2017-10-13T10:16:00.623Z,86.35
2017-10-13T10:17:00.622Z,86.35
2017-10-13T10:18:00.631Z,86.30
2017-10-13T10:19:00.618Z,85.92
2017-10-13T10:20:00.618Z,86.49
2017-10-13T10:21:00.617Z,86.11
2017-10-13T10:22:00.620Z,85.72
2017-10-13T10:23:00.617Z,86.30
2017-10-13T10:24:00.613Z,85.77
2017-10-13T10:25:00.612Z,84.77
2017-10-13T10:26:00.612Z,84.61
2017-10-13T10:27:00.630Z,84.81
2017-10-13T10:28:00.612Z,84.81
2017-10-13T10:29:00.608Z,85.00
2017-10-13T10:30:00.608Z,84.33
2017-10-13T10:31:00.606Z,84.81
2017-10-13T10:32:00.607Z,83.94
2017-10-13T10:33:00.618Z,83.37
2017-10-13T10:34:00.597Z,84.33
2017-10-13T10:35:00.596Z,83.65
2017-10-13T10:36:00.596Z,83.51
2017-10-13T10:37:00.632Z,82.93
2017-10-13T10:38:00.595Z,82.84
2017-10-13T10:39:00.608Z,82.93
2017-10-13T10:40:00.597Z,81.68
2017-10-13T10:41:01.144Z,81.10
2017-10-13T10:42:00.599Z,81.59
2017-10-13T10:43:00.604Z,81.97
2017-10-13T10:44:00.623Z,81.01
2017-10-13T10:45:01.143Z,80.47
2017-10-13T10:46:01.145Z,79.99
2017-10-13T10:47:00.621Z,79.80
2017-10-13T10:48:01.144Z,80.19
2017-10-13T10:49:00.601Z,79.80
2017-10-13T10:50:00.624Z,79.46
2017-10-13T10:51:01.145Z,80.22
2017-10-13T10:52:00.602Z,78.59
2017-10-13T10:53:00.599Z,78.40
2017-10-13T10:54:00.622Z,78.40
2017-10-13T10:55:00.605Z,77.25
2017-10-13T10:56:00.610Z,77.92
2017-10-13T10:57:00.603Z,77.44
2017-10-13T10:58:00.599Z,77.09
2017-10-13T10:59:00.605Z,76.90
2017-10-13T11:00:00.610Z,75.90
2017-10-13T11:01:00.602Z,77.44
2017-10-13T11:02:00.606Z,76.86
2017-10-13T11:03:00.622Z,77.09
2017-10-13T11:04:00.604Z,75.75
2017-10-13T11:05:00.611Z,76.61
2017-10-13T11:06:00.610Z,75.27
2017-10-13T11:07:00.626Z,75.21
2017-10-13T11:08:00.624Z,72.67
2017-10-13T11:09:00.592Z,73.15
2017-10-13T11:10:00.611Z,73.92
2017-10-13T11:11:00.609Z,73.35
2017-10-13T11:12:00.616Z,73.63
2017-10-13T11:13:00.613Z,74.46
2017-10-13T11:14:00.626Z,74.94
2017-10-13T11:15:00.615Z,75.62
2017-10-13T11:16:01.157Z,76.19
2017-10-13T11:17:00.623Z,77.44
2017-10-13T11:18:00.642Z,76.19
2017-10-13T11:19:00.621Z,76.48
2017-10-13T11:20:00.619Z,76.86
2017-10-13T11:21:01.154Z,76.77
2017-10-13T11:22:01.155Z,76.48
2017-10-13T11:23:00.634Z,76.73
2017-10-13T11:24:00.640Z,76.19
2017-10-13T11:25:00.627Z,76.39
2017-10-13T11:26:00.617Z,77.34
2017-10-13T11:27:00.619Z,76.73
2017-10-13T11:28:00.626Z,77.40
2017-10-13T11:29:00.617Z,78.08
2017-10-13T11:30:00.622Z,77.50
2017-10-13T11:31:00.620Z,77.21
2017-10-13T11:32:00.601Z,77.59
2017-10-13T11:33:00.625Z,77.31
2017-10-13T11:34:00.619Z,78.65
2017-10-13T11:35:00.620Z,78.75
2017-10-13T11:36:00.624Z,78.55
2017-10-13T11:37:00.623Z,79.13
2017-10-13T11:38:00.619Z,78.27
2017-10-13T11:39:00.622Z,79.22
2017-10-13T11:40:00.624Z,79.32
2017-10-13T11:41:00.625Z,78.27
2017-10-13T11:42:00.627Z,79.03
2017-10-13T11:43:00.623Z,78.94
2017-10-13T11:44:00.630Z,78.45
2017-10-13T11:45:00.629Z,79.55
2017-10-13T11:46:01.161Z,78.69
2017-10-13T11:47:00.626Z,77.63
2017-10-13T11:48:01.162Z,77.83
2017-10-13T11:49:00.639Z,77.83
2017-10-13T11:50:00.625Z,77.53
2017-10-13T11:51:00.628Z,77.44
2017-10-13T11:52:00.627Z,77.29
2017-10-13T11:53:00.627Z,77.48
2017-10-13T11:54:00.627Z,76.04
2017-10-13T11:55:00.629Z,74.79
2017-10-13T11:56:00.628Z,75.65
2017-10-13T11:57:00.631Z,75.17
2017-10-13T11:58:01.164Z,75.27
2017-10-13T11:59:00.632Z,75.94
2017-10-13T12:00:01.166Z,76.23
2017-10-13T12:01:00.637Z,74.11
2017-10-13T12:02:01.168Z,74.25
2017-10-13T12:03:01.168Z,74.30
2017-10-13T12:04:01.167Z,74.40
2017-10-13T12:05:00.634Z,74.34
2017-10-13T12:06:00.650Z,74.54
2017-10-13T12:07:00.637Z,74.34
2017-10-13T12:08:00.635Z,73.86
2017-10-13T12:09:00.639Z,73.67
2017-10-13T12:10:00.641Z,73.57
2017-10-13T12:11:00.644Z,74.05
2017-10-13T12:12:00.639Z,73.67
2017-10-13T12:13:00.652Z,73.00
2017-10-13T12:14:00.647Z,72.80
2017-10-13T12:15:00.647Z,73.06
2017-10-13T12:16:00.656Z,73.09
2017-10-13T12:17:00.639Z,72.77
2017-10-13T12:18:01.176Z,73.54
2017-10-13T12:19:00.643Z,73.15
2017-10-13T12:20:00.646Z,72.77
2017-10-13T12:21:00.644Z,73.83
2017-10-13T12:22:00.651Z,73.83
2017-10-13T12:23:00.652Z,74.30
2017-10-13T12:24:00.671Z,74.98
2017-10-13T12:25:00.653Z,74.21
2017-10-13T12:26:00.661Z,73.25
2017-10-13T12:27:00.646Z,73.67
2017-10-13T12:28:00.664Z,73.44
2017-10-13T12:29:00.648Z,73.06
2017-10-13T12:30:01.176Z,73.83
2017-10-13T12:31:01.176Z,72.67
2017-10-13T12:32:00.675Z,72.77
2017-10-13T12:33:01.181Z,73.83
2017-10-13T12:34:00.655Z,73.44
2017-10-13T12:35:00.649Z,73.09
2017-10-13T12:36:01.178Z,73.57
2017-10-13T12:37:00.654Z,73.38
2017-10-13T12:38:00.659Z,72.90
2017-10-13T12:39:00.656Z,72.71
2017-10-13T12:40:00.661Z,71.65
2017-10-13T12:41:00.665Z,72.32
2017-10-13T12:42:00.656Z,72.90
2017-10-13T12:43:01.180Z,73.38
2017-10-13T12:44:00.674Z,72.03
2017-10-13T12:45:00.686Z,71.46
2017-10-13T12:46:00.668Z,71.75
2017-10-13T12:47:00.674Z,71.55
2017-10-13T12:48:01.182Z,72.03
2017-10-13T12:49:00.668Z,72.23
2017-10-13T12:50:00.671Z,71.55
2017-10-13T12:51:00.673Z,72.03
2017-10-13T12:52:00.667Z,73.19